Time;durP1;ratioP1;P1;durP2;ratioP2;P2;SDS_P1;SDS_P2;PMS_P1;PMS_P2;Temp;Humidity;BMP_temperature;BMP_pressure;BME280_temperature;BME280_humidity;BME280_pressure;Samples;Min_cycle;Max_cycle;Signal;HPM_P1;HPM_P2
2021/01/26 00:01:42;;;;;;;18.42;5.35;;;;;;;;;;5132877;27;20034;-76
2021/01/26 00:04:46;;;;;;;14.65;6.10;;;;;;;;;;5132645;27;20031;-76
2021/01/26 00:07:51;;;;;;;11.68;6.10;;;;;;;;;;5132847;27;20031;-75
2021/01/26 00:10:55;;;;;;;20.90;6.78;;;;;;;;;;5132310;27;20047;-75
2021/01/26 00:14:00;;;;;;;17.45;7.18;;;;;;;;;;5119724;27;20043;-75
2021/01/26 00:17:04;;;;;;;10.43;5.30;;;;;;;;;;5119697;27;20039;-76
2021/01/26 00:20:10;;;;;;;15.60;5.60;;;;;;;;;;5119624;27;20518;-75
2021/01/26 00:23:15;;;;;;;15.60;5.55;;;;;;;;;;5132470;27;20039;-75
2021/01/26 00:26:19;;;;;;;16.48;4.82;;;;;;;;;;5132302;27;20046;-75
2021/01/26 00:29:23;;;;;;;11.80;4.00;;;;;;;;;;5132193;27;20031;-76
2021/01/26 00:32:29;;;;;;;8.85;4.00;;;;;;;;;;5132022;27;20043;-76
2021/01/26 00:35:33;;;;;;;15.32;4.60;;;;;;;;;;5132286;27;20047;-75
2021/01/26 00:38:38;;;;;;;13.95;4.50;;;;;;;;;;5132052;27;20046;-75
2021/01/26 00:41:42;;;;;;;8.50;4.00;;;;;;;;;;5131943;27;20050;-75
2021/01/26 00:44:46;;;;;;;11.00;4.00;;;;;;;;;;5131211;27;20035;-76
2021/01/26 00:47:50;;;;;;;10.90;3.78;;;;;;;;;;5131833;28;20046;-75
2021/01/26 00:50:55;;;;;;;11.13;3.58;;;;;;;;;;5119460;28;20039;-75
2021/01/26 00:53:59;;;;;;;10.00;3.88;;;;;;;;;;5119101;28;20054;-75
2021/01/26 00:57:07;;;;;;;11.13;4.07;;;;;;;;;;5119178;28;20034;-75
2021/01/26 01:00:16;;;;;;;12.27;4.70;;;;;;;;;;5119499;28;20035;-75
2021/01/26 01:03:21;;;;;;;13.63;5.90;;;;;;;;;;5119190;28;20040;-75
2021/01/26 01:06:25;;;;;;;10.35;4.93;;;;;;;;;;5131851;28;20042;-76
2021/01/26 01:09:29;;;;;;;9.27;3.65;;;;;;;;;;5131535;28;20027;-75
2021/01/26 01:12:33;;;;;;;11.88;5.47;;;;;;;;;;5131726;28;20035;-75
2021/01/26 01:15:38;;;;;;;9.13;4.03;;;;;;;;;;5132011;28;20479;-75
2021/01/26 01:18:43;;;;;;;7.68;4.43;;;;;;;;;;5131920;28;20039;-76
2021/01/26 01:21:47;;;;;;;12.65;4.68;;;;;;;;;;5131941;28;20485;-76
2021/01/26 01:24:51;;;;;;;11.75;6.18;;;;;;;;;;5131656;28;20517;-75
2021/01/26 01:27:56;;;;;;;7.10;3.20;;;;;;;;;;5131778;28;20635;-75
2021/01/26 01:31:00;;;;;;;7.22;2.67;;;;;;;;;;5131521;28;20027;-76
2021/01/26 01:34:08;;;;;;;10.75;2.38;;;;;;;;;;5119012;28;20046;-76
2021/01/26 01:37:14;;;;;;;5.78;2.28;;;;;;;;;;5131489;28;20031;-75
2021/01/26 01:40:26;;;;;;;5.53;2.40;;;;;;;;;;5131735;28;20039;-76
2021/01/26 01:43:33;;;;;;;10.10;3.13;;;;;;;;;;5131788;28;20035;-76
2021/01/26 01:46:41;;;;;;;7.80;3.15;;;;;;;;;;5131647;28;20039;-75
2021/01/26 01:49:46;;;;;;;11.02;3.20;;;;;;;;;;5131683;28;20478;-75
2021/01/26 01:53:06;;;;;;;8.63;2.92;;;;;;;;;;5131611;28;20387;-75
2021/01/26 01:56:19;;;;;;;6.95;2.90;;;;;;;;;;5120060;27;20035;-75
2021/01/26 01:59:25;;;;;;;7.70;2.85;;;;;;;;;;5134883;27;20035;-75
2021/01/26 02:02:29;;;;;;;8.82;3.20;;;;;;;;;;5135222;27;20039;-75
2021/01/26 02:05:33;;;;;;;8.82;2.88;;;;;;;;;;5134878;27;20039;-75
2021/01/26 02:08:59;;;;;;;8.55;3.45;;;;;;;;;;5122307;27;20032;-75
2021/01/26 02:12:04;;;;;;;6.72;3.67;;;;;;;;;;5122077;27;20039;-75
2021/01/26 02:15:09;;;;;;;9.13;4.55;;;;;;;;;;5134708;27;20035;-76
2021/01/26 02:18:20;;;;;;;8.93;4.68;;;;;;;;;;5122101;27;20035;-76
2021/01/26 02:21:26;;;;;;;12.15;4.07;;;;;;;;;;5121859;27;20039;-76
2021/01/26 02:24:40;;;;;;;7.78;3.60;;;;;;;;;;5134650;27;20210;-76
2021/01/26 02:27:53;;;;;;;10.30;4.10;;;;;;;;;;5134468;27;20040;-76
2021/01/26 02:31:16;;;;;;;11.98;4.18;;;;;;;;;;5134678;27;20399;-75
2021/01/26 02:34:27;;;;;;;10.52;4.30;;;;;;;;;;5134320;27;20047;-76
2021/01/26 02:37:41;;;;;;;10.55;4.70;;;;;;;;;;5134424;27;20039;-76
2021/01/26 02:41:02;;;;;;;12.68;5.45;;;;;;;;;;5134230;27;20039;-76
2021/01/26 02:44:07;;;;;;;12.07;5.47;;;;;;;;;;5134298;27;20043;-76
2021/01/26 02:47:14;;;;;;;12.65;5.93;;;;;;;;;;5134249;27;20383;-75
2021/01/26 02:50:24;;;;;;;9.57;5.20;;;;;;;;;;5134125;27;20055;-76
2021/01/26 02:53:32;;;;;;;10.95;5.20;;;;;;;;;;5133952;27;20491;-75
2021/01/26 02:56:55;;;;;;;11.45;5.13;;;;;;;;;;5134074;27;20047;-75
2021/01/26 03:00:12;;;;;;;15.52;5.95;;;;;;;;;;5121287;27;20474;-75
2021/01/26 03:03:20;;;;;;;14.48;5.32;;;;;;;;;;5133754;27;20039;-75
2021/01/26 03:06:29;;;;;;;9.88;5.53;;;;;;;;;;5133405;27;20047;-75
2021/01/26 03:09:36;;;;;;;12.68;5.43;;;;;;;;;;5133032;27;20027;-75
2021/01/26 03:12:42;;;;;;;14.48;5.70;;;;;;;;;;5120777;27;20051;-75
2021/01/26 03:15:51;;;;;;;13.30;5.57;;;;;;;;;;5133702;27;20494;-76
2021/01/26 03:19:07;;;;;;;8.60;5.13;;;;;;;;;;5133772;27;20506;-76
2021/01/26 03:22:12;;;;;;;9.00;4.45;;;;;;;;;;5120821;27;20039;-75
2021/01/26 03:25:17;;;;;;;12.30;4.60;;;;;;;;;;5133605;27;20035;-76
2021/01/26 03:28:23;;;;;;;8.35;4.50;;;;;;;;;;5133389;27;20050;-76
2021/01/26 03:31:29;;;;;;;11.95;4.72;;;;;;;;;;5133259;27;20035;-76
2021/01/26 03:34:34;;;;;;;11.70;5.70;;;;;;;;;;5133224;27;20039;-76
2021/01/26 03:37:39;;;;;;;13.63;5.25;;;;;;;;;;5132831;27;20506;-76
2021/01/26 03:40:43;;;;;;;16.65;6.40;;;;;;;;;;5133418;27;20039;-75
2021/01/26 03:43:48;;;;;;;12.40;5.57;;;;;;;;;;5133235;27;20031;-76
2021/01/26 03:46:53;;;;;;;12.50;6.55;;;;;;;;;;5132965;27;20042;-76
2021/01/26 03:50:03;;;;;;;12.23;6.05;;;;;;;;;;5133142;27;20046;-75
2021/01/26 03:53:08;;;;;;;14.20;6.70;;;;;;;;;;5132838;27;20046;-76
2021/01/26 03:56:31;;;;;;;16.48;7.00;;;;;;;;;;5132916;27;20042;-76
2021/01/26 03:59:54;;;;;;;10.82;5.60;;;;;;;;;;5132848;27;20042;-76
2021/01/26 04:03:17;;;;;;;11.23;6.55;;;;;;;;;;5132581;27;20410;-76
2021/01/26 04:06:59;;;;;;;11.65;6.00;;;;;;;;;;5132328;27;20046;-76
2021/01/26 04:10:14;;;;;;;11.68;5.50;;;;;;;;;;5029162;28;20045;-75
2021/01/26 04:13:22;;;;;;;13.68;5.60;;;;;;;;;;5034942;27;20029;-74
2021/01/26 04:16:28;;;;;;;13.43;6.32;;;;;;;;;;5132632;27;20035;-76
2021/01/26 04:19:34;;;;;;;12.15;6.40;;;;;;;;;;5132323;27;20031;-75
2021/01/26 04:22:38;;;;;;;8.13;5.47;;;;;;;;;;5132712;27;20409;-76
2021/01/26 04:25:47;;;;;;;11.43;5.68;;;;;;;;;;5132565;27;20047;-76
2021/01/26 04:28:52;;;;;;;12.75;6.35;;;;;;;;;;5132409;27;20038;-76
2021/01/26 04:31:57;;;;;;;12.20;6.60;;;;;;;;;;5119909;27;20042;-76
2021/01/26 04:35:01;;;;;;;18.38;7.50;;;;;;;;;;5132353;27;20054;-75
2021/01/26 04:38:05;;;;;;;11.48;6.55;;;;;;;;;;5132253;27;20031;-76
2021/01/26 04:41:16;;;;;;;15.45;7.22;;;;;;;;;;5132600;27;20042;-76
2021/01/26 04:44:39;;;;;;;13.30;7.00;;;;;;;;;;5132410;27;20035;-76
2021/01/26 04:48:06;;;;;;;11.85;6.75;;;;;;;;;;5132029;27;20048;-75
2021/01/26 04:51:13;;;;;;;14.73;6.95;;;;;;;;;;5132354;28;20031;-76
2021/01/26 04:54:36;;;;;;;9.60;5.40;;;;;;;;;;5131769;28;20069;-76
2021/01/26 04:57:43;;;;;;;5.75;2.58;;;;;;;;;;5132183;28;20035;-76
2021/01/26 05:00:59;;;;;;;2.88;1.77;;;;;;;;;;5119743;28;20521;-76
2021/01/26 05:04:06;;;;;;;3.83;2.15;;;;;;;;;;5132258;28;20368;-75
2021/01/26 05:07:16;;;;;;;1.42;1.10;;;;;;;;;;5132231;28;20043;-75
2021/01/26 05:10:42;;;;;;;4.57;1.60;;;;;;;;;;5131826;28;20044;-75
2021/01/26 05:13:51;;;;;;;4.00;1.70;;;;;;;;;;5131967;28;20046;-76
2021/01/26 05:17:00;;;;;;;4.68;1.20;;;;;;;;;;5132032;28;20036;-76
2021/01/26 05:20:07;;;;;;;3.50;1.25;;;;;;;;;;5131758;28;20047;-75
2021/01/26 05:23:17;;;;;;;3.28;1.52;;;;;;;;;;5132044;28;20379;-76
2021/01/26 05:26:21;;;;;;;6.43;1.75;;;;;;;;;;5131598;28;20471;-74
2021/01/26 05:29:25;;;;;;;10.82;1.60;;;;;;;;;;5131798;28;20043;-75
2021/01/26 05:32:30;;;;;;;4.70;1.40;;;;;;;;;;5134885;27;20023;-75
2021/01/26 05:35:36;;;;;;;3.75;1.58;;;;;;;;;;5135671;27;20514;-75
2021/01/26 05:38:41;;;;;;;3.55;1.50;;;;;;;;;;5135774;27;20039;-75
2021/01/26 05:41:45;;;;;;;2.88;1.42;;;;;;;;;;5135576;27;20039;-75
2021/01/26 05:44:55;;;;;;;4.88;1.75;;;;;;;;;;5135636;27;20039;-74
2021/01/26 05:48:10;;;;;;;4.75;1.35;;;;;;;;;;5135532;27;20043;-75
2021/01/26 05:51:22;;;;;;;7.82;1.80;;;;;;;;;;5122621;27;20036;-75
2021/01/26 05:54:26;;;;;;;2.58;1.38;;;;;;;;;;5122474;27;20524;-75
2021/01/26 05:57:35;;;;;;;4.97;2.00;;;;;;;;;;5122646;27;20035;-76
2021/01/26 06:00:41;;;;;;;3.55;1.40;;;;;;;;;;5135292;27;20035;-75
2021/01/26 06:04:03;;;;;;;1.95;1.33;;;;;;;;;;5135336;27;20031;-75
2021/01/26 06:07:17;;;;;;;3.03;1.40;;;;;;;;;;5134842;27;20364;-75
2021/01/26 06:10:22;;;;;;;1.58;1.10;;;;;;;;;;5134841;27;20570;-75
2021/01/26 06:13:30;;;;;;;3.30;1.20;;;;;;;;;;5134787;27;20043;-75
2021/01/26 06:16:34;;;;;;;1.42;1.10;;;;;;;;;;5134672;27;20051;-75
2021/01/26 06:19:39;;;;;;;3.92;1.85;;;;;;;;;;5134688;27;20035;-76
2021/01/26 06:22:44;;;;;;;2.17;1.50;;;;;;;;;;5134932;27;20039;-76
2021/01/26 06:25:52;;;;;;;2.05;1.27;;;;;;;;;;5134633;27;20039;-75
2021/01/26 06:29:12;;;;;;;5.38;2.60;;;;;;;;;;5134903;27;20043;-75
2021/01/26 06:32:35;;;;;;;6.68;1.80;;;;;;;;;;5134680;27;20035;-76
2021/01/26 06:35:52;;;;;;;4.45;1.80;;;;;;;;;;5134407;27;20039;-76
2021/01/26 06:39:23;;;;;;;4.45;1.60;;;;;;;;;;5121816;27;20031;-76
2021/01/26 06:42:35;;;;;;;2.85;1.92;;;;;;;;;;5134231;27;20039;-76
2021/01/26 06:45:39;;;;;;;2.78;1.60;;;;;;;;;;5134062;27;20368;-76
2021/01/26 06:48:50;;;;;;;2.92;1.55;;;;;;;;;;5134086;27;20051;-75
2021/01/26 06:52:12;;;;;;;4.72;1.60;;;;;;;;;;5134455;27;20035;-75
2021/01/26 06:55:23;;;;;;;5.18;1.42;;;;;;;;;;5133921;27;20043;-75
2021/01/26 06:58:27;;;;;;;11.05;2.45;;;;;;;;;;5134064;27;20043;-76
2021/01/26 07:01:46;;;;;;;7.93;2.42;;;;;;;;;;5133932;27;20472;-76
2021/01/26 07:05:09;;;;;;;4.05;2.22;;;;;;;;;;5134096;27;20031;-75
2021/01/26 07:08:25;;;;;;;10.73;3.97;;;;;;;;;;5133747;27;20035;-75
2021/01/26 07:11:32;;;;;;;16.50;7.13;;;;;;;;;;5133414;27;20057;-74
2021/01/26 07:14:43;;;;;;;13.75;6.13;;;;;;;;;;5133545;27;20609;-75
2021/01/26 07:17:58;;;;;;;14.48;7.47;;;;;;;;;;5133617;27;20038;-76
2021/01/26 07:21:03;;;;;;;6.88;3.05;;;;;;;;;;5133805;27;20035;-76
2021/01/26 07:24:26;;;;;;;11.27;3.38;;;;;;;;;;5133799;27;20035;-77
2021/01/26 07:27:44;;;;;;;17.83;6.55;;;;;;;;;;5133420;27;20035;-74
2021/01/26 07:30:57;;;;;;;5.03;2.47;;;;;;;;;;5133367;27;20050;-74
2021/01/26 07:34:18;;;;;;;10.30;2.67;;;;;;;;;;5133394;27;20039;-77
2021/01/26 07:37:25;;;;;;;6.35;3.30;;;;;;;;;;5133001;27;20147;-73
2021/01/26 07:40:34;;;;;;;4.85;1.45;;;;;;;;;;5120644;27;20031;-74
2021/01/26 07:43:49;;;;;;;6.40;2.10;;;;;;;;;;5133099;27;20061;-75
2021/01/26 07:46:56;;;;;;;3.17;1.20;;;;;;;;;;5133157;27;20039;-75
2021/01/26 07:50:03;;;;;;;5.20;2.03;;;;;;;;;;5120961;27;20483;-78
2021/01/26 07:53:14;;;;;;;7.75;1.67;;;;;;;;;;5108982;27;20035;-78
2021/01/26 07:56:25;;;;;;;2.00;1.15;;;;;;;;;;5133214;27;20039;-83
2021/01/26 07:59:31;;;;;;;5.80;1.42;;;;;;;;;;5133036;27;20039;-73
2021/01/26 08:02:38;;;;;;;8.73;1.42;;;;;;;;;;5132531;27;20043;-73
2021/01/26 08:05:47;;;;;;;7.85;1.95;;;;;;;;;;5133081;27;20035;-73
2021/01/26 08:08:56;;;;;;;8.63;2.30;;;;;;;;;;5132974;27;20039;-74
2021/01/26 08:12:04;;;;;;;5.40;2.15;;;;;;;;;;5092343;28;20044;-76
2021/01/26 08:15:11;;;;;;;9.75;5.10;;;;;;;;;;5090953;28;20044;-76
2021/01/26 08:18:21;;;;;;;4.30;1.00;;;;;;;;;;5091037;28;20040;-76
2021/01/26 08:21:34;;;;;;;6.00;1.52;;;;;;;;;;5090927;28;20039;-72
2021/01/26 08:24:39;;;;;;;4.90;1.52;;;;;;;;;;5092603;28;20417;-72
2021/01/26 08:27:44;;;;;;;3.72;1.63;;;;;;;;;;5091780;28;20036;-70
2021/01/26 08:30:48;;;;;;;2.50;1.10;;;;;;;;;;5090896;28;20040;-72
2021/01/26 08:33:54;;;;;;;3.72;1.80;;;;;;;;;;5091450;28;20032;-73
2021/01/26 08:37:13;;;;;;;2.38;1.20;;;;;;;;;;5091076;28;20044;-75
2021/01/26 08:40:18;;;;;;;4.75;1.38;;;;;;;;;;5090329;28;20368;-77
2021/01/26 08:43:40;;;;;;;3.53;1.00;;;;;;;;;;5091608;28;20044;-75
2021/01/26 08:46:46;;;;;;;9.65;1.70;;;;;;;;;;5091279;28;20036;-74
2021/01/26 08:50:08;;;;;;;3.80;1.73;;;;;;;;;;5091523;28;20040;-73
2021/01/26 08:53:21;;;;;;;4.00;1.52;;;;;;;;;;5091454;28;20044;-77
2021/01/26 08:56:28;;;;;;;3.95;1.48;;;;;;;;;;5090884;28;20044;-77
2021/01/26 08:59:32;;;;;;;1.58;1.08;;;;;;;;;;5091231;28;20036;-73
2021/01/26 09:02:41;;;;;;;2.47;1.10;;;;;;;;;;5090968;28;20040;-75
2021/01/26 09:05:45;;;;;;;5.05;1.58;;;;;;;;;;5090402;28;20032;-74
2021/01/26 09:08:50;;;;;;;5.05;1.67;;;;;;;;;;5094297;28;20032;-74
2021/01/26 09:12:08;;;;;;;4.97;1.50;;;;;;;;;;5094371;28;20048;-73
2021/01/26 09:15:12;;;;;;;1.27;1.10;;;;;;;;;;5094760;28;20496;-74
2021/01/26 09:18:18;;;;;;;3.85;0.90;;;;;;;;;;5095109;28;20479;-75
2021/01/26 09:21:22;;;;;;;5.82;0.93;;;;;;;;;;5094850;28;20040;-72
2021/01/26 09:24:27;;;;;;;3.97;1.27;;;;;;;;;;5094206;28;20032;-72
2021/01/26 09:27:33;;;;;;;10.35;1.50;;;;;;;;;;5095026;28;20048;-72
2021/01/26 09:30:40;;;;;;;4.65;1.13;;;;;;;;;;5094754;28;20036;-72
2021/01/26 09:33:44;;;;;;;3.33;1.33;;;;;;;;;;5094385;28;20036;-72
2021/01/26 09:36:48;;;;;;;2.15;1.17;;;;;;;;;;5094767;28;20044;-72
2021/01/26 09:40:05;;;;;;;3.78;1.30;;;;;;;;;;5094398;28;20032;-72
2021/01/26 09:43:23;;;;;;;1.40;0.88;;;;;;;;;;5094672;28;20040;-72
2021/01/26 09:46:29;;;;;;;3.88;1.33;;;;;;;;;;5094430;28;20040;-72
2021/01/26 09:49:34;;;;;;;2.92;1.30;;;;;;;;;;5094488;28;20039;-73
2021/01/26 09:52:39;;;;;;;4.28;1.40;;;;;;;;;;5094502;28;20127;-74
2021/01/26 09:55:43;;;;;;;1.92;1.02;;;;;;;;;;5094229;28;20389;-73
2021/01/26 09:58:50;;;;;;;2.70;1.23;;;;;;;;;;5093448;28;20028;-73
2021/01/26 10:01:55;;;;;;;5.88;1.60;;;;;;;;;;5094145;28;20036;-75
2021/01/26 10:05:00;;;;;;;3.72;1.30;;;;;;;;;;5094242;28;20032;-74
2021/01/26 10:08:27;;;;;;;3.78;1.15;;;;;;;;;;5094127;28;20039;-72
2021/01/26 10:11:31;;;;;;;6.25;1.30;;;;;;;;;;5129963;28;20253;-73
2021/01/26 10:14:35;;;;;;;5.25;1.35;;;;;;;;;;5133476;28;20482;-73
2021/01/26 10:17:44;;;;;;;3.70;1.35;;;;;;;;;;5133238;27;20341;-73
2021/01/26 10:20:58;;;;;;;2.78;1.65;;;;;;;;;;5133528;28;20039;-74
2021/01/26 10:24:05;;;;;;;5.10;1.45;;;;;;;;;;5133417;28;20038;-75
2021/01/26 10:27:11;;;;;;;2.60;1.00;;;;;;;;;;5133518;28;20470;-73
2021/01/26 10:30:18;;;;;;;3.50;1.33;;;;;;;;;;5133205;28;20035;-73
2021/01/26 10:33:33;;;;;;;30.80;2.70;;;;;;;;;;5120694;28;20035;-71
2021/01/26 10:36:38;;;;;;;2.65;1.30;;;;;;;;;;5133059;28;20039;-74
2021/01/26 10:39:43;;;;;;;4.05;1.60;;;;;;;;;;5133459;28;20035;-73
2021/01/26 10:43:09;;;;;;;15.18;1.48;;;;;;;;;;5133361;28;20039;-75
2021/01/26 10:46:14;;;;;;;4.60;1.50;;;;;;;;;;5133360;28;20388;-70
2021/01/26 10:49:18;;;;;;;4.18;2.38;;;;;;;;;;5120481;28;20486;-71
2021/01/26 10:52:35;;;;;;;2.22;1.50;;;;;;;;;;5132902;28;20031;-73
2021/01/26 10:55:40;;;;;;;4.60;1.90;;;;;;;;;;5132716;28;20043;-70
2021/01/26 10:58:45;;;;;;;5.38;2.30;;;;;;;;;;5132069;28;20031;-73
2021/01/26 11:01:51;;;;;;;8.68;1.50;;;;;;;;;;5131484;28;20235;-74
2021/01/26 11:04:56;;;;;;;4.07;2.45;;;;;;;;;;5119958;28;20482;-74
2021/01/26 11:08:00;;;;;;;3.70;1.67;;;;;;;;;;5119740;28;20035;-73
2021/01/26 11:11:05;;;;;;;3.55;2.03;;;;;;;;;;5108047;27;705454;-75
2021/01/26 11:14:09;;;;;;;4.20;1.90;;;;;;;;;;5120018;27;20048;-73
2021/01/26 11:17:16;;;;;;;4.10;1.92;;;;;;;;;;5132306;27;20391;-72
2021/01/26 11:20:21;;;;;;;4.53;1.80;;;;;;;;;;5133465;27;20023;-71
2021/01/26 11:23:25;;;;;;;2.42;1.38;;;;;;;;;;5133814;27;20490;-73
2021/01/26 11:26:30;;;;;;;8.18;1.90;;;;;;;;;;5133414;27;20368;-71
2021/01/26 11:29:34;;;;;;;2.70;1.63;;;;;;;;;;5132777;27;20035;-72
2021/01/26 11:32:39;;;;;;;5.80;1.80;;;;;;;;;;5133084;27;20039;-71
2021/01/26 11:35:43;;;;;;;3.22;1.73;;;;;;;;;;5133251;27;20506;-74
2021/01/26 11:38:48;;;;;;;2.55;1.33;;;;;;;;;;5132947;27;20039;-74
2021/01/26 11:41:52;;;;;;;5.43;1.50;;;;;;;;;;5120573;27;20372;-75
2021/01/26 11:44:57;;;;;;;2.55;1.60;;;;;;;;;;5133414;27;20046;-72
2021/01/26 11:48:01;;;;;;;4.43;2.17;;;;;;;;;;5120272;27;20039;-74
2021/01/26 11:51:06;;;;;;;2.28;1.30;;;;;;;;;;5132838;27;20031;-72
2021/01/26 11:54:11;;;;;;;2.65;1.48;;;;;;;;;;5132712;27;20035;-73
2021/01/26 11:57:16;;;;;;;3.25;1.23;;;;;;;;;;5132912;27;20368;-73
2021/01/26 12:00:22;;;;;;;2.47;1.63;;;;;;;;;;5132815;27;20376;-72
2021/01/26 12:03:27;;;;;;;3.63;2.25;;;;;;;;;;5132659;27;20039;-72
2021/01/26 12:06:32;;;;;;;4.28;2.28;;;;;;;;;;5131950;27;20035;-73
2021/01/26 12:09:36;;;;;;;4.03;1.63;;;;;;;;;;5132479;27;20038;-72
2021/01/26 12:12:40;;;;;;;5.85;2.47;;;;;;;;;;5119932;27;20506;-71
2021/01/26 12:15:45;;;;;;;6.82;2.35;;;;;;;;;;5132243;27;20611;-72
2021/01/26 12:18:49;;;;;;;9.15;2.00;;;;;;;;;;5132439;27;20392;-73
2021/01/26 12:21:53;;;;;;;7.03;1.65;;;;;;;;;;5120077;27;20051;-71
2021/01/26 12:24:58;;;;;;;4.78;1.40;;;;;;;;;;5119411;27;20368;-73
2021/01/26 12:28:05;;;;;;;37.45;17.80;;;;;;;;;;5132677;27;20035;-72
2021/01/26 12:31:09;;;;;;;6.07;2.30;;;;;;;;;;5119732;27;20042;-74
2021/01/26 12:34:14;;;;;;;2.72;1.65;;;;;;;;;;5120099;27;20031;-73
2021/01/26 12:37:19;;;;;;;4.43;1.63;;;;;;;;;;5132445;27;20031;-73
2021/01/26 12:40:23;;;;;;;3.22;1.70;;;;;;;;;;5132559;27;20035;-72
2021/01/26 12:43:28;;;;;;;4.32;1.30;;;;;;;;;;5132213;27;20035;-72
2021/01/26 12:46:32;;;;;;;4.47;1.50;;;;;;;;;;5132158;27;20027;-73
2021/01/26 12:49:36;;;;;;;3.75;1.52;;;;;;;;;;5131831;27;20023;-74
2021/01/26 12:52:41;;;;;;;1.60;1.10;;;;;;;;;;5119870;28;20031;-72
2021/01/26 12:55:45;;;;;;;3.58;1.92;;;;;;;;;;5131938;28;20039;-74
2021/01/26 12:58:50;;;;;;;3.50;1.67;;;;;;;;;;5119121;28;20479;-73
2021/01/26 13:01:55;;;;;;;2.58;0.93;;;;;;;;;;5130649;28;20039;-73
2021/01/26 13:04:59;;;;;;;1.63;1.45;;;;;;;;;;5131853;28;20039;-72
2021/01/26 13:08:04;;;;;;;4.22;1.50;;;;;;;;;;5131810;28;20043;-73
2021/01/26 13:11:09;;;;;;;3.13;1.90;;;;;;;;;;5119092;28;20039;-74
2021/01/26 13:14:14;;;;;;;4.13;1.30;;;;;;;;;;5107971;28;20035;-72
2021/01/26 13:17:19;;;;;;;2.60;1.50;;;;;;;;;;5119391;28;20166;-72
2021/01/26 13:20:24;;;;;;;6.85;1.95;;;;;;;;;;5119375;28;20039;-72
2021/01/26 13:23:28;;;;;;;11.95;2.30;;;;;;;;;;5131422;28;20035;-72
2021/01/26 13:26:33;;;;;;;5.50;1.35;;;;;;;;;;5131330;28;20035;-71
2021/01/26 13:29:37;;;;;;;7.45;2.80;;;;;;;;;;5107469;28;20031;-72
2021/01/26 13:32:41;;;;;;;3.28;1.67;;;;;;;;;;5119196;28;20368;-75
2021/01/26 13:35:45;;;;;;;3.53;1.80;;;;;;;;;;5131493;28;20047;-74
2021/01/26 13:38:50;;;;;;;3.20;1.50;;;;;;;;;;5131443;28;20031;-71
2021/01/26 13:41:56;;;;;;;4.65;2.40;;;;;;;;;;5131877;28;20043;-74
2021/01/26 13:45:01;;;;;;;5.88;1.75;;;;;;;;;;5119023;28;20482;-73
2021/01/26 13:48:06;;;;;;;6.07;1.75;;;;;;;;;;5118932;28;20043;-72
2021/01/26 13:51:13;;;;;;;3.47;1.50;;;;;;;;;;5119060;27;20035;-74
2021/01/26 13:54:17;;;;;;;3.42;2.10;;;;;;;;;;5135196;27;20031;-74
2021/01/26 13:57:21;;;;;;;16.13;2.13;;;;;;;;;;5135171;27;20039;-73
2021/01/26 14:00:28;;;;;;;4.82;1.40;;;;;;;;;;5135504;27;20039;-70
2021/01/26 14:03:33;;;;;;;5.05;1.63;;;;;;;;;;5134996;27;20035;-70
2021/01/26 14:06:38;;;;;;;5.63;2.10;;;;;;;;;;5135209;27;20039;-72
2021/01/26 14:09:42;;;;;;;4.60;2.05;;;;;;;;;;5134907;27;20031;-73
2021/01/26 14:12:46;;;;;;;4.25;2.85;;;;;;;;;;5135146;27;20631;-69
2021/01/26 14:15:52;;;;;;;3.88;1.52;;;;;;;;;;5134943;27;20051;-70
2021/01/26 14:18:57;;;;;;;3.80;1.52;;;;;;;;;;5122138;27;20027;-69
2021/01/26 14:22:02;;;;;;;4.90;2.15;;;;;;;;;;5134313;27;20039;-74
2021/01/26 14:25:06;;;;;;;1.95;1.42;;;;;;;;;;5134787;27;20039;-73
2021/01/26 14:28:11;;;;;;;11.27;2.50;;;;;;;;;;5134664;27;20035;-73
2021/01/26 14:31:15;;;;;;;4.63;2.88;;;;;;;;;;5134810;27;20035;-71
2021/01/26 14:34:20;;;;;;;13.25;6.90;;;;;;;;;;5134512;27;20039;-71
2021/01/26 14:37:25;;;;;;;4.38;2.15;;;;;;;;;;5134512;27;20039;-70
2021/01/26 14:40:29;;;;;;;6.10;3.88;;;;;;;;;;5134387;27;20380;-74
2021/01/26 14:43:33;;;;;;;2.90;2.20;;;;;;;;;;5121712;27;20039;-73
2021/01/26 14:46:38;;;;;;;4.90;2.67;;;;;;;;;;5133809;27;20371;-72
2021/01/26 14:49:42;;;;;;;9.93;2.72;;;;;;;;;;5134097;27;20035;-72
2021/01/26 14:52:47;;;;;;;13.43;8.45;;;;;;;;;;5134130;27;20035;-71
2021/01/26 14:55:52;;;;;;;6.05;3.40;;;;;;;;;;5133861;27;20043;-73
2021/01/26 14:58:56;;;;;;;5.22;3.13;;;;;;;;;;5134115;27;20035;-74
2021/01/26 15:02:03;;;;;;;6.65;3.08;;;;;;;;;;5134053;27;20035;-73
2021/01/26 15:05:08;;;;;;;6.53;3.00;;;;;;;;;;5132958;27;20039;-73
2021/01/26 15:08:13;;;;;;;6.85;3.38;;;;;;;;;;5134302;27;20035;-75
2021/01/26 15:11:17;;;;;;;16.13;3.90;;;;;;;;;;5133757;27;20047;-73
2021/01/26 15:14:22;;;;;;;6.22;2.80;;;;;;;;;;5137314;27;20050;-74
2021/01/26 15:17:27;;;;;;;7.15;3.42;;;;;;;;;;5134047;27;20035;-74
2021/01/26 15:20:31;;;;;;;7.28;2.90;;;;;;;;;;5133533;27;20455;-74
2021/01/26 15:23:35;;;;;;;5.88;3.15;;;;;;;;;;5121543;27;20046;-72
2021/01/26 15:26:39;;;;;;;6.32;3.10;;;;;;;;;;5133644;27;20039;-74
2021/01/26 15:29:44;;;;;;;6.45;1.88;;;;;;;;;;5133377;27;20035;-72
2021/01/26 15:32:50;;;;;;;6.90;4.45;;;;;;;;;;5133169;27;20055;-74
2021/01/26 15:35:57;;;;;;;10.15;3.72;;;;;;;;;;5132749;27;20039;-74
2021/01/26 15:39:01;;;;;;;9.05;3.70;;;;;;;;;;5133226;27;20034;-73
2021/01/26 15:42:05;;;;;;;9.90;4.80;;;;;;;;;;5120293;27;20039;-73
2021/01/26 15:45:10;;;;;;;6.47;3.38;;;;;;;;;;5133025;27;20031;-74
2021/01/26 15:48:17;;;;;;;5.45;3.05;;;;;;;;;;5133123;27;20035;-73
2021/01/26 15:51:22;;;;;;;9.95;4.03;;;;;;;;;;5132977;27;20035;-73
2021/01/26 15:54:26;;;;;;;7.72;4.30;;;;;;;;;;5132694;27;20039;-73
2021/01/26 15:57:31;;;;;;;10.40;6.70;;;;;;;;;;5132957;27;20039;-73
2021/01/26 16:00:35;;;;;;;9.30;4.32;;;;;;;;;;5132564;27;20050;-74
2021/01/26 16:03:39;;;;;;;10.15;5.40;;;;;;;;;;5132585;27;20379;-73
2021/01/26 16:06:45;;;;;;;11.75;5.45;;;;;;;;;;5119872;27;20039;-71
2021/01/26 16:09:49;;;;;;;8.80;5.38;;;;;;;;;;5132504;27;20043;-71
2021/01/26 16:12:55;;;;;;;12.45;6.65;;;;;;;;;;5132575;27;20039;-72
2021/01/26 16:16:00;;;;;;;9.68;4.72;;;;;;;;;;5132133;27;20051;-74
2021/01/26 16:19:07;;;;;;;12.95;5.97;;;;;;;;;;5132557;27;20031;-72
2021/01/26 16:22:11;;;;;;;13.70;7.97;;;;;;;;;;5119583;27;20033;-73
2021/01/26 16:25:17;;;;;;;10.52;7.05;;;;;;;;;;5132205;27;20036;-74
2021/01/26 16:28:21;;;;;;;9.50;6.82;;;;;;;;;;5132463;27;20395;-74
2021/01/26 16:31:26;;;;;;;16.77;9.18;;;;;;;;;;5119391;27;20035;-72
2021/01/26 16:34:33;;;;;;;15.73;6.40;;;;;;;;;;5132079;27;20039;-72
2021/01/26 16:37:37;;;;;;;7.18;4.43;;;;;;;;;;5119859;27;20046;-73
2021/01/26 16:40:41;;;;;;;10.07;5.18;;;;;;;;;;5119689;27;20035;-73
2021/01/26 16:43:46;;;;;;;7.95;5.65;;;;;;;;;;5119741;27;20047;-73
2021/01/26 16:46:52;;;;;;;11.10;5.65;;;;;;;;;;5132109;27;20031;-73
2021/01/26 16:49:57;;;;;;;11.48;6.20;;;;;;;;;;5132092;27;20042;-71
2021/01/26 16:53:02;;;;;;;14.02;5.88;;;;;;;;;;5131697;27;20035;-72
2021/01/26 16:56:06;;;;;;;15.25;10.13;;;;;;;;;;5131373;28;20502;-73
2021/01/26 16:59:10;;;;;;;14.75;7.28;;;;;;;;;;5131454;28;20038;-74
2021/01/26 17:02:15;;;;;;;13.23;6.53;;;;;;;;;;5131403;28;20035;-74
2021/01/26 17:05:20;;;;;;;15.80;8.75;;;;;;;;;;5131776;28;20035;-73
2021/01/26 17:08:27;;;;;;;11.80;6.38;;;;;;;;;;5131598;28;20035;-70
2021/01/26 17:11:34;;;;;;;11.77;6.75;;;;;;;;;;5131756;28;20153;-72
2021/01/26 17:14:40;;;;;;;8.15;4.68;;;;;;;;;;5131746;28;20042;-73
2021/01/26 17:17:45;;;;;;;10.27;6.85;;;;;;;;;;5132122;28;20043;-71
2021/01/26 17:20:51;;;;;;;11.77;5.88;;;;;;;;;;5132033;28;20046;-72
2021/01/26 17:23:56;;;;;;;12.48;6.35;;;;;;;;;;5119203;28;20394;-73
2021/01/26 17:27:01;;;;;;;15.32;8.00;;;;;;;;;;5120028;27;20031;-76
2021/01/26 17:30:06;;;;;;;8.80;4.82;;;;;;;;;;5123079;27;20039;-75
2021/01/26 17:33:11;;;;;;;14.02;4.95;;;;;;;;;;5111288;27;20372;-72
2021/01/26 17:36:16;;;;;;;12.23;4.75;;;;;;;;;;5135472;27;20426;-73
2021/01/26 17:39:21;;;;;;;13.38;6.78;;;;;;;;;;5135744;27;20031;-75
2021/01/26 17:42:26;;;;;;;15.25;9.73;;;;;;;;;;5135803;27;20039;-76
2021/01/26 17:45:31;;;;;;;75.60;37.47;;;;;;;;;;5135560;27;20391;-75
2021/01/26 17:48:35;;;;;;;73.95;43.45;;;;;;;;;;5135429;27;20045;-73
2021/01/26 17:51:40;;;;;;;39.10;24.75;;;;;;;;;;5135142;27;20046;-74
2021/01/26 17:54:44;;;;;;;36.33;20.77;;;;;;;;;;5135299;27;20046;-75
2021/01/26 17:57:48;;;;;;;27.85;16.67;;;;;;;;;;5122343;27;20070;-72
2021/01/26 18:00:53;;;;;;;32.83;19.73;;;;;;;;;;5135320;27;20383;-71
2021/01/26 18:03:58;;;;;;;48.53;25.52;;;;;;;;;;5135000;27;20046;-73
2021/01/26 18:07:03;;;;;;;27.63;19.73;;;;;;;;;;5135101;27;20045;-80
2021/01/26 18:10:08;;;;;;;30.40;19.73;;;;;;;;;;5134591;27;20042;-76
2021/01/26 18:13:13;;;;;;;31.25;19.15;;;;;;;;;;5135247;27;20046;-77
2021/01/26 18:16:17;;;;;;;31.92;19.58;;;;;;;;;;5135055;27;20057;-75
2021/01/26 18:19:22;;;;;;;34.78;18.20;;;;;;;;;;5134702;27;20042;-74
2021/01/26 18:22:26;;;;;;;39.30;18.73;;;;;;;;;;5134469;27;20109;-74
2021/01/26 18:25:34;;;;;;;36.80;21.23;;;;;;;;;;5133614;27;20038;-73
2021/01/26 18:28:38;;;;;;;40.17;22.35;;;;;;;;;;5133703;27;20057;-74
2021/01/26 18:31:43;;;;;;;38.13;21.90;;;;;;;;;;5134401;27;20038;-73
2021/01/26 18:34:50;;;;;;;40.20;22.52;;;;;;;;;;5134105;27;20046;-72
2021/01/26 18:37:54;;;;;;;35.33;21.73;;;;;;;;;;5134330;27;20505;-72